createdAt,value
2019-05-29T00:04:06.145Z,1.70
2019-05-29T00:09:08.600Z,1.80
2019-05-29T00:14:24.898Z,2.75
2019-05-29T00:19:14.916Z,3.10
2019-05-29T00:24:17.185Z,2.70
2019-05-29T00:29:19.475Z,3.50
2019-05-29T00:34:21.826Z,3.43
2019-05-29T00:39:24.086Z,5.30
2019-05-29T00:44:34.352Z,5.03
2019-05-29T00:49:30.931Z,3.90
2019-05-29T00:54:33.225Z,4.37
2019-05-29T00:59:35.520Z,5.50
2019-05-29T01:04:37.895Z,6.10
2019-05-29T01:09:40.485Z,5.70
2019-05-29T01:14:50.279Z,6.17
2019-05-29T01:19:46.774Z,5.80
2019-05-29T01:24:49.046Z,6.15
2019-05-29T01:29:51.317Z,7.28
2019-05-29T01:34:53.588Z,7.50
2019-05-29T01:39:55.858Z,8.35
2019-05-29T01:45:07.559Z,8.30
2019-05-29T01:50:02.152Z,9.23
2019-05-29T01:55:05.706Z,9.80
2019-05-29T02:00:09.065Z,8.85
2019-05-29T02:05:11.332Z,10.30
2019-05-29T02:10:13.790Z,11.55
2019-05-29T02:15:26.005Z,11.83
2019-05-29T02:20:21.157Z,12.40
2019-05-29T02:25:24.354Z,13.00
2019-05-29T02:30:30.336Z,11.35
2019-05-29T02:35:30.967Z,11.03
2019-05-29T02:40:33.348Z,10.88
2019-05-29T02:45:52.848Z,9.75
2019-05-29T02:50:39.758Z,7.20
2019-05-29T02:55:42.114Z,11.33
2019-05-29T03:00:46.027Z,11.50
2019-05-29T03:05:48.298Z,11.73
2019-05-29T03:10:51.243Z,11.57
2019-05-29T03:16:09.734Z,13.27
2019-05-29T03:20:57.608Z,11.70
2019-05-29T03:26:00.191Z,12.58
2019-05-29T03:31:02.474Z,11.87
2019-05-29T03:36:04.790Z,12.37
2019-05-29T03:41:07.070Z,12.43
2019-05-29T03:46:26.441Z,12.27
2019-05-29T03:51:13.392Z,12.05
2019-05-29T03:56:15.643Z,12.10
2019-05-29T04:01:17.924Z,12.40
2019-05-29T04:06:20.271Z,13.60
2019-05-29T04:11:22.550Z,12.70
2019-05-29T04:16:25.505Z,12.95
2019-05-29T04:21:29.548Z,12.93
2019-05-29T04:26:32.269Z,13.72
2019-05-29T04:31:36.572Z,11.90
2019-05-29T04:36:39.171Z,12.87
2019-05-29T04:41:41.592Z,12.70
2019-05-29T04:46:43.857Z,14.27
2019-05-29T04:51:46.349Z,13.10
2019-05-29T04:56:48.627Z,13.80
2019-05-29T05:01:50.886Z,13.43
2019-05-29T05:06:53.161Z,12.85
2019-05-29T05:11:55.724Z,12.26
2019-05-29T05:16:58.271Z,12.03
2019-05-29T05:22:00.572Z,11.05
2019-05-29T05:27:02.958Z,12.10
2019-05-29T05:32:05.241Z,12.98
2019-05-29T05:37:07.571Z,11.97
2019-05-29T05:42:09.878Z,11.95
2019-05-29T05:47:12.123Z,11.45
2019-05-29T05:52:14.500Z,11.40
2019-05-29T05:57:16.788Z,10.75
2019-05-29T06:02:19.143Z,11.08
2019-05-29T06:07:21.716Z,12.07
2019-05-29T06:12:24.003Z,12.03
2019-05-29T06:17:26.311Z,11.83
2019-05-29T06:22:28.857Z,12.97
2019-05-29T06:27:31.151Z,12.60
2019-05-29T06:32:33.603Z,11.12
2019-05-29T06:37:35.900Z,10.98
2019-05-29T06:42:38.246Z,10.00
2019-05-29T06:47:40.912Z,10.68
2019-05-29T06:52:43.658Z,10.07
2019-05-29T06:57:45.956Z,10.05
2019-05-29T07:02:48.306Z,9.58
2019-05-29T07:07:50.689Z,9.08
2019-05-29T07:12:53.027Z,9.25
2019-05-29T07:17:55.308Z,9.78
2019-05-29T07:22:57.598Z,9.20
2019-05-29T07:27:59.898Z,9.20
2019-05-29T07:33:02.262Z,8.35
2019-05-29T07:38:04.607Z,8.38
2019-05-29T07:43:06.887Z,7.84
2019-05-29T07:48:09.182Z,8.50
2019-05-29T07:53:11.551Z,7.90
2019-05-29T07:58:13.917Z,6.75
2019-05-29T08:03:16.274Z,6.10
2019-05-29T08:08:18.912Z,6.05
2019-05-29T08:13:21.197Z,6.12
2019-05-29T08:18:23.490Z,5.83
2019-05-29T08:23:25.750Z,6.25
2019-05-29T08:28:28.026Z,5.92
2019-05-29T08:33:30.470Z,5.10
2019-05-29T08:38:33.198Z,5.93
2019-05-29T08:43:35.532Z,5.20
2019-05-29T08:48:37.880Z,5.00
2019-05-29T08:53:40.196Z,5.15
2019-05-29T08:58:42.895Z,4.70
2019-05-29T09:03:46.634Z,4.45
2019-05-29T09:08:50.494Z,4.65
2019-05-29T09:13:53.163Z,4.20
2019-05-29T09:18:55.483Z,3.70
2019-05-29T09:23:58.804Z,3.83
2019-05-29T09:29:01.747Z,3.75
2019-05-29T09:34:04.216Z,3.72
2019-05-29T09:39:07.695Z,4.37
2019-05-29T09:44:25.108Z,4.00
2019-05-29T09:49:14.256Z,4.35
2019-05-29T09:54:16.966Z,3.80
2019-05-29T09:59:19.384Z,2.95
2019-05-29T10:04:21.698Z,3.87
2019-05-29T10:09:23.952Z,4.05
2019-05-29T10:14:26.328Z,3.93
2019-05-29T10:19:28.633Z,4.65
2019-05-29T10:24:32.412Z,5.20
2019-05-29T10:29:35.026Z,6.28
2019-05-29T10:34:37.322Z,7.55
2019-05-29T10:39:39.682Z,6.58
2019-05-29T10:44:42.957Z,6.65
2019-05-29T10:49:45.547Z,6.60
2019-05-29T10:54:48.126Z,6.75
2019-05-29T10:59:50.833Z,6.65
2019-05-29T11:04:56.728Z,5.85
2019-05-29T11:09:57.338Z,5.30
2019-05-29T11:14:59.627Z,4.17
2019-05-29T11:20:04.728Z,4.86
2019-05-29T11:25:21.663Z,4.30
2019-05-29T11:30:12.248Z,3.05
2019-05-29T11:35:14.872Z,3.22
2019-05-29T11:40:17.300Z,3.10
2019-05-29T11:45:19.757Z,3.70
2019-05-29T11:50:22.346Z,2.73
2019-05-29T11:55:25.162Z,2.77
2019-05-29T12:00:27.562Z,3.03
2019-05-29T12:05:29.915Z,4.10
2019-05-29T12:10:32.303Z,3.40
2019-05-29T12:15:34.590Z,2.98
2019-05-29T12:20:36.953Z,3.50
2019-05-29T12:25:39.254Z,3.60
2019-05-29T12:30:41.591Z,3.37
2019-05-29T12:35:44.320Z,3.08
2019-05-29T12:40:46.633Z,2.80
2019-05-29T12:45:48.950Z,3.08
2019-05-29T12:50:51.508Z,3.10
2019-05-29T12:55:54.025Z,2.52
2019-05-29T13:00:56.514Z,2.67
2019-05-29T13:05:58.903Z,3.25
2019-05-29T13:11:02.516Z,2.90
2019-05-29T13:16:05.347Z,2.90
2019-05-29T13:21:07.722Z,2.70
2019-05-29T13:26:10.154Z,2.12
2019-05-29T13:31:12.415Z,1.90
2019-05-29T13:36:15.096Z,1.70
2019-05-29T13:41:17.497Z,1.60
2019-05-29T13:46:19.773Z,1.55
2019-05-29T13:51:22.047Z,1.27
2019-05-29T13:56:24.578Z,1.60
2019-05-29T14:01:26.989Z,1.50
2019-05-29T14:06:29.316Z,1.70
2019-05-29T14:11:31.663Z,1.42
2019-05-29T14:16:33.947Z,1.60
2019-05-29T14:21:36.342Z,1.90
2019-05-29T14:26:38.681Z,1.30
2019-05-29T14:31:41.043Z,1.70
2019-05-29T14:36:43.273Z,1.98
2019-05-29T14:41:45.571Z,1.90
2019-05-29T14:46:47.882Z,1.60
2019-05-29T14:51:50.241Z,1.40
2019-05-29T14:56:53.484Z,1.42
2019-05-29T15:01:55.897Z,1.20
2019-05-29T15:06:58.177Z,1.50
2019-05-29T15:12:01.368Z,1.10
2019-05-29T15:17:05.025Z,1.40
2019-05-29T15:22:09.275Z,1.25
2019-05-29T15:27:12.072Z,0.90
2019-05-29T15:32:14.668Z,1.00
2019-05-29T15:37:18.814Z,1.10
2019-05-29T15:42:21.030Z,0.70
2019-05-29T15:47:23.490Z,0.88
2019-05-29T15:52:25.751Z,0.90
2019-05-29T15:57:28.037Z,1.02
2019-05-29T16:02:30.440Z,1.10
2019-05-29T16:07:32.711Z,1.42
2019-05-29T16:12:35.038Z,1.30
2019-05-29T16:17:37.375Z,1.92
2019-05-29T16:22:39.679Z,1.27
2019-05-29T16:27:42.190Z,1.27
2019-05-29T16:32:45.069Z,0.80
2019-05-29T16:37:47.358Z,0.76
2019-05-29T16:42:49.775Z,0.85
2019-05-29T16:47:52.223Z,0.70
2019-05-29T16:52:54.499Z,0.82
2019-05-29T16:57:56.837Z,0.80
2019-05-29T17:02:59.122Z,0.82
2019-05-29T17:08:01.456Z,1.02
2019-05-29T17:13:04.581Z,1.00
2019-05-29T17:18:06.943Z,1.00
2019-05-29T17:23:09.517Z,1.07
2019-05-29T17:28:11.921Z,1.15
2019-05-29T17:33:15.095Z,0.90
2019-05-29T17:38:18.915Z,0.95
2019-05-29T17:43:24.915Z,1.20
2019-05-29T17:48:26.043Z,1.00
2019-05-29T17:53:28.440Z,1.10
2019-05-29T17:58:30.786Z,0.83
2019-05-29T18:03:33.077Z,1.50
2019-05-29T18:08:35.449Z,1.10
2019-05-29T18:13:38.174Z,1.15
2019-05-29T18:18:40.518Z,0.90
2019-05-29T18:23:42.858Z,1.40
2019-05-29T18:28:45.446Z,1.00
2019-05-29T18:33:47.751Z,1.37
2019-05-29T18:38:50.099Z,1.20
2019-05-29T18:43:52.573Z,1.45
2019-05-29T18:48:54.856Z,1.60
2019-05-29T18:53:57.309Z,1.55
2019-05-29T18:58:59.808Z,1.90
2019-05-29T19:04:03.241Z,1.60
2019-05-29T19:09:07.159Z,2.30
2019-05-29T19:14:10.094Z,1.67
2019-05-29T19:19:12.938Z,1.37
2019-05-29T19:24:15.426Z,1.77
2019-05-29T19:29:17.782Z,2.30
2019-05-29T19:34:21.256Z,1.66
2019-05-29T19:39:24.379Z,1.40
2019-05-29T19:44:28.377Z,1.54
2019-05-29T19:49:31.303Z,1.40
2019-05-29T19:54:33.939Z,1.42
2019-05-29T19:59:36.921Z,2.10
2019-05-29T20:04:39.934Z,1.62
2019-05-29T20:09:42.798Z,2.40
2019-05-29T20:14:45.219Z,2.70
2019-05-29T20:19:47.814Z,2.80
2019-05-29T20:24:50.476Z,2.40
2019-05-29T20:29:53.141Z,2.40
2019-05-29T20:34:56.160Z,2.55
2019-05-29T20:39:58.724Z,2.77
2019-05-29T20:45:01.068Z,2.40
2019-05-29T20:50:04.870Z,2.67
2019-05-29T20:55:07.450Z,2.52
2019-05-29T21:00:10.344Z,2.75
2019-05-29T21:05:13.375Z,2.00
2019-05-29T21:10:15.880Z,2.15
2019-05-29T21:15:18.945Z,2.25
2019-05-29T21:20:21.240Z,2.30
2019-05-29T21:25:23.615Z,2.40
2019-05-29T21:30:26.074Z,2.10
2019-05-29T21:35:28.415Z,2.05
2019-05-29T21:40:30.773Z,1.80
2019-05-29T21:45:33.331Z,2.40
2019-05-29T21:50:37.054Z,1.98
2019-05-29T21:55:39.610Z,2.45
2019-05-29T22:00:44.565Z,2.30
2019-05-29T22:05:47.156Z,2.00
2019-05-29T22:10:49.445Z,2.00
2019-05-29T22:15:52.645Z,2.00
2019-05-29T22:20:57.050Z,2.37
2019-05-29T22:25:59.425Z,2.17
2019-05-29T22:31:01.908Z,2.43
2019-05-29T22:36:04.349Z,2.10
2019-05-29T22:46:14.801Z,2.20
2019-05-29T22:51:17.149Z,2.45
2019-05-29T22:56:19.655Z,3.62
2019-05-29T23:01:21.969Z,5.20
2019-05-29T23:06:24.249Z,3.10
2019-05-29T23:11:26.520Z,3.02
2019-05-29T23:16:28.798Z,2.80
2019-05-29T23:21:31.084Z,2.10
2019-05-29T23:26:33.507Z,2.30
2019-05-29T23:31:35.785Z,2.17
2019-05-29T23:36:38.348Z,2.23
2019-05-29T23:41:40.643Z,2.47
2019-05-29T23:46:42.944Z,2.37
2019-05-29T23:51:45.237Z,2.62
2019-05-29T23:56:47.565Z,2.60
